Time,TemperatureF,DewpointF,PressureIn,WindDirection,WindDirectionDegrees,WindSpeedMPH,WindSpeedGustMPH,Humidity,HourlyPrecipIn,Conditions,Clouds,dailyrainin,SoftwareType,DateUTC
2013-02-19 00:04:00,16.7,12.4,29.88,NNW,338,4.0,4.0,83,0.00,CLR,CLR,0.00,WeatherDisplay:10.34,2013-02-19 07:04:00,
2013-02-19 00:09:00,16.5,12.2,29.88,WNW,299,2.0,0.0,83,0.00,CLR,CLR,0.00,WeatherDisplay:10.34,2013-02-19 07:09:00,
2013-02-19 00:14:00,16.0,11.7,29.88,NW,309,5.0,5.0,83,0.00,CLR,CLR,0.00,WeatherDisplay:10.34,2013-02-19 07:14:00,
2013-02-19 00:19:00,16.0,11.7,29.88,NW,309,5.0,5.0,83,0.00,CLR,CLR,0.00,WeatherDisplay:10.34,2013-02-19 07:19:00,
2013-02-19 00:24:00,15.5,11.5,29.88,NNW,330,3.0,3.0,84,0.00,CLR,CLR,0.00,WeatherDisplay:10.34,2013-02-19 07:24:00,
2013-02-19 00:29:00,15.5,11.5,29.88,NNW,333,3.0,3.0,84,0.00,CLR,CLR,0.00,WeatherDisplay:10.34,2013-02-19 07:29:00,
2013-02-19 00:34:00,15.5,11.5,29.88,NNW,333,4.0,4.0,84,0.00,CLR,CLR,0.00,WeatherDisplay:10.34,2013-02-19 07:34:00,
2013-02-19 00:39:00,15.5,11.5,29.88,NNW,333,2.0,2.0,84,0.00,CLR,CLR,0.00,WeatherDisplay:10.34,2013-02-19 07:39:00,
2013-02-19 00:44:00,15.3,11.3,29.88,NNW,333,1.0,1.0,84,0.00,CLR,CLR,0.00,WeatherDisplay:10.34,2013-02-19 07:44:00,
2013-02-19 00:49:00,15.2,11.2,29.88,NNW,337,1.0,2.0,84,0.00,CLR,CLR,0.00,WeatherDisplay:10.34,2013-02-19 07:49:00,
2013-02-19 00:55:00,15.0,11.3,29.88,NNW,333,3.0,3.0,85,0.00,CLR,CLR,0.00,WeatherDisplay:10.34,2013-02-19 07:55:00,
2013-02-19 01:00:00,14.9,11.2,29.88,NNW,333,4.0,4.0,85,0.00,CLR,CLR,0.00,WeatherDisplay:10.34,2013-02-19 08:00:00,
2013-02-19 01:05:00,14.8,11.1,29.88,NNW,333,3.0,3.0,85,0.00,CLR,CLR,0.00,WeatherDisplay:10.34,2013-02-19 08:05:00,
2013-02-19 01:10:00,14.7,11.0,29.87,NNW,333,2.0,2.0,85,0.00,CLR,CLR,0.00,WeatherDisplay:10.34,2013-02-19 08:10:00,
2013-02-19 01:16:00,14.6,10.9,29.87,NNW,333,0.0,1.0,85,0.00,CLR,CLR,0.00,WeatherDisplay:10.34,2013-02-19 08:16:00,
2013-02-19 01:21:00,14.4,10.7,29.87,NNW,333,4.0,4.0,85,0.00,CLR,CLR,0.00,WeatherDisplay:10.34,2013-02-19 08:21:00,
2013-02-19 01:26:00,14.3,10.6,29.87,NNW,333,2.0,5.0,85,0.00,CLR,CLR,0.00,WeatherDisplay:10.34,2013-02-19 08:26:00,
2013-02-19 01:31:00,14.3,10.9,29.87,NNW,333,6.0,7.0,86,0.00,CLR,CLR,0.00,WeatherDisplay:10.34,2013-02-19 08:31:00,
2013-02-19 01:36:00,14.4,11.0,29.87,NNW,333,6.0,6.0,86,0.00,CLR,CLR,0.00,WeatherDisplay:10.34,2013-02-19 08:36:00,
2013-02-19 01:41:00,14.4,11.0,29.86,NNW,333,3.0,3.0,86,0.00,CLR,CLR,0.00,WeatherDisplay:10.34,2013-02-19 08:41:00,
2013-02-19 01:46:00,14.4,11.0,29.86,NNW,332,1.0,2.0,86,0.00,CLR,CLR,0.00,WeatherDisplay:10.34,2013-02-19 08:46:00,
2013-02-19 01:51:00,14.4,11.0,29.86,NNW,331,6.0,6.0,86,0.00,CLR,CLR,0.00,WeatherDisplay:10.34,2013-02-19 08:51:00,
2013-02-19 01:56:00,14.5,11.1,29.86,NNW,331,4.0,4.0,86,0.00,CLR,CLR,0.00,WeatherDisplay:10.34,2013-02-19 08:56:00,
2013-02-19 02:01:00,14.5,11.1,29.86,NNW,332,5.0,5.0,86,0.00,CLR,CLR,0.00,WeatherDisplay:10.34,2013-02-19 09:01:00,
2013-02-19 02:06:00,14.5,11.1,29.86,NNW,332,0.0,1.0,86,0.00,CLR,CLR,0.00,WeatherDisplay:10.34,2013-02-19 09:06:00,
2013-02-19 02:11:00,14.5,11.1,29.86,NNW,331,1.0,1.0,86,0.00,CLR,CLR,0.00,WeatherDisplay:10.34,2013-02-19 09:11:00,
2013-02-19 02:16:00,14.4,11.0,29.86,NNW,331,1.0,1.0,86,0.00,CLR,CLR,0.00,WeatherDisplay:10.34,2013-02-19 09:16:00,
2013-02-19 02:21:00,14.4,11.0,29.86,NNW,332,1.0,2.0,86,0.00,CLR,CLR,0.00,WeatherDisplay:10.34,2013-02-19 09:21:00,
2013-02-19 02:26:00,14.4,11.2,29.86,NNW,333,0.0,0.0,87,0.00,CLR,CLR,0.00,WeatherDisplay:10.34,2013-02-19 09:26:00,
2013-02-19 02:31:00,14.5,11.3,29.85,NNW,332,0.0,0.0,87,0.00,CLR,CLR,0.00,WeatherDisplay:10.34,2013-02-19 09:31:00,
2013-02-19 02:36:00,14.4,11.2,29.85,NNW,332,0.0,0.0,87,0.00,CLR,CLR,0.00,WeatherDisplay:10.34,2013-02-19 09:36:00,
2013-02-19 02:41:00,14.4,11.2,29.85,NNW,331,0.0,0.0,87,0.00,CLR,CLR,0.00,WeatherDisplay:10.34,2013-02-19 09:41:00,
2013-02-19 02:46:00,14.3,10.9,29.85,NNW,332,0.0,0.0,86,0.00,CLR,CLR,0.00,WeatherDisplay:10.34,2013-02-19 09:46:00,
2013-02-19 02:51:00,14.1,10.7,29.84,NNW,332,1.0,2.0,86,0.00,CLR,CLR,0.00,WeatherDisplay:10.34,2013-02-19 09:51:00,
2013-02-19 02:56:00,13.9,10.5,29.84,NNW,332,2.0,2.0,86,0.00,CLR,CLR,0.00,WeatherDisplay:10.34,2013-02-19 09:56:00,
2013-02-19 03:01:00,13.5,10.1,29.84,NNW,332,3.0,5.0,86,0.00,CLR,CLR,0.00,WeatherDisplay:10.34,2013-02-19 10:01:00,
2013-02-19 03:06:00,13.4,10.0,29.84,NNW,332,0.0,1.0,86,0.00,CLR,CLR,0.00,WeatherDisplay:10.34,2013-02-19 10:06:00,
2013-02-19 03:11:00,13.3,9.9,29.83,NNW,332,3.0,3.0,86,0.00,CLR,CLR,0.00,WeatherDisplay:10.34,2013-02-19 10:11:00,
2013-02-19 03:16:00,13.1,9.7,29.83,NNW,332,2.0,2.0,86,0.00,CLR,CLR,0.00,WeatherDisplay:10.34,2013-02-19 10:16:00,
2013-02-19 03:21:00,13.0,9.6,29.82,NNW,332,0.0,0.0,86,0.00,CLR,CLR,0.00,WeatherDisplay:10.34,2013-02-19 10:21:00,
2013-02-19 03:26:00,12.9,9.5,29.82,NNW,333,0.0,1.0,86,0.00,CLR,CLR,0.00,WeatherDisplay:10.34,2013-02-19 10:26:00,
2013-02-19 03:31:00,12.9,9.5,29.82,NNW,331,1.0,1.0,86,0.00,CLR,CLR,0.00,WeatherDisplay:10.34,2013-02-19 10:31:00,
2013-02-19 03:36:00,13.0,9.6,29.82,NNW,332,0.0,0.0,86,0.00,CLR,CLR,0.00,WeatherDisplay:10.34,2013-02-19 10:36:00,
2013-02-19 03:41:00,13.0,9.6,29.82,NNW,332,0.0,0.0,86,0.00,CLR,CLR,0.00,WeatherDisplay:10.34,2013-02-19 10:41:00,
2013-02-19 03:46:00,12.9,9.5,29.82,NNW,331,0.0,1.0,86,0.00,CLR,CLR,0.00,WeatherDisplay:10.34,2013-02-19 10:46:00,
2013-02-19 03:51:00,12.8,9.4,29.82,NNW,332,0.0,0.0,86,0.00,CLR,CLR,0.00,WeatherDisplay:10.34,2013-02-19 10:51:00,
2013-02-19 03:56:00,12.8,9.4,29.82,NNW,332,0.0,1.0,86,0.00,CLR,CLR,0.00,WeatherDisplay:10.34,2013-02-19 10:56:00,
2013-02-19 04:01:00,12.8,9.4,29.81,NNW,331,0.0,0.0,86,0.00,CLR,CLR,0.00,WeatherDisplay:10.34,2013-02-19 11:01:00,
2013-02-19 04:06:00,12.8,9.4,29.81,NNW,332,0.0,1.0,86,0.00,CLR,CLR,0.00,WeatherDisplay:10.34,2013-02-19 11:06:00,
2013-02-19 04:11:00,12.7,9.3,29.81,NNW,332,0.0,0.0,86,0.00,CLR,CLR,0.00,WeatherDisplay:10.34,2013-02-19 11:11:00,
2013-02-19 04:16:00,12.7,9.3,29.81,NNW,332,0.0,1.0,86,0.00,CLR,CLR,0.00,WeatherDisplay:10.34,2013-02-19 11:16:00,
2013-02-19 04:21:00,12.7,9.3,29.81,NNW,332,0.0,0.0,86,0.00,CLR,CLR,0.00,WeatherDisplay:10.34,2013-02-19 11:21:00,
2013-02-19 04:26:00,12.6,9.2,29.81,NNW,333,0.0,0.0,86,0.00,CLR,CLR,0.00,WeatherDisplay:10.34,2013-02-19 11:26:00,
2013-02-19 04:31:00,12.6,9.2,29.81,NNW,331,0.0,0.0,86,0.00,CLR,CLR,0.00,WeatherDisplay:10.34,2013-02-19 11:31:00,
2013-02-19 04:36:00,12.4,9.0,29.81,NNW,333,0.0,0.0,86,0.00,CLR,CLR,0.00,WeatherDisplay:10.34,2013-02-19 11:36:00,
2013-02-19 04:41:00,12.2,8.6,29.80,NNW,332,0.0,0.0,85,0.00,CLR,CLR,0.00,WeatherDisplay:10.34,2013-02-19 11:41:00,
2013-02-19 04:46:00,12.1,8.5,29.80,NNW,331,0.0,0.0,85,0.00,CLR,CLR,0.00,WeatherDisplay:10.34,2013-02-19 11:46:00,
2013-02-19 04:51:00,12.0,8.4,29.80,NNW,332,0.0,0.0,85,0.00,CLR,CLR,0.00,WeatherDisplay:10.34,2013-02-19 11:51:00,
2013-02-19 04:56:00,11.9,8.3,29.80,NNW,332,0.0,0.0,85,0.00,CLR,CLR,0.00,WeatherDisplay:10.34,2013-02-19 11:56:00,
2013-02-19 05:01:00,11.8,8.2,29.80,NNW,332,0.0,0.0,85,0.00,,,0.00,WeatherDisplay:10.34,2013-02-19 12:01:00,
2013-02-19 05:06:00,11.8,8.4,29.80,NNW,332,0.0,0.0,86,0.00,,,0.00,WeatherDisplay:10.34,2013-02-19 12:06:00,
2013-02-19 05:11:00,12.2,8.8,29.79,NNW,332,1.0,1.0,86,0.00,,,0.00,WeatherDisplay:10.34,2013-02-19 12:11:00,
2013-02-19 05:16:00,12.7,9.6,29.80,NNW,332,3.0,3.0,87,0.00,,,0.00,WeatherDisplay:10.34,2013-02-19 12:16:00,
2013-02-19 05:21:00,12.9,9.5,29.80,NNW,332,2.0,2.0,86,0.00,,,0.00,WeatherDisplay:10.34,2013-02-19 12:21:00,
2013-02-19 05:26:00,12.8,9.4,29.80,NNW,331,2.0,2.0,86,0.00,,,0.00,WeatherDisplay:10.34,2013-02-19 12:26:00,
2013-02-19 05:32:00,12.8,9.4,29.79,NNW,332,1.0,1.0,86,0.00,,,0.00,WeatherDisplay:10.34,2013-02-19 12:32:00,
2013-02-19 05:37:00,12.8,9.1,29.79,NNW,332,0.0,1.0,85,0.00,,,0.00,WeatherDisplay:10.34,2013-02-19 12:37:00,
2013-02-19 05:42:00,12.8,9.1,29.79,NNW,332,0.0,0.0,85,0.00,,,0.00,WeatherDisplay:10.34,2013-02-19 12:42:00,
2013-02-19 05:47:00,12.8,9.4,29.79,NNW,332,1.0,1.0,86,0.00,,,0.00,WeatherDisplay:10.34,2013-02-19 12:47:00,
2013-02-19 05:52:00,12.7,9.0,29.79,NNW,332,2.0,2.0,85,0.00,,,0.00,WeatherDisplay:10.34,2013-02-19 12:52:00,
2013-02-19 05:57:00,12.6,8.9,29.79,NNW,332,2.0,2.0,85,0.00,,,0.00,WeatherDisplay:10.34,2013-02-19 12:57:00,
2013-02-19 06:02:00,12.6,8.9,29.79,NNW,331,0.0,1.0,85,0.00,CLR,CLR,0.00,WeatherDisplay:10.34,2013-02-19 13:02:00,
2013-02-19 06:07:00,12.6,9.2,29.79,NNW,331,0.0,0.0,86,0.00,CLR,CLR,0.00,WeatherDisplay:10.34,2013-02-19 13:07:00,
2013-02-19 06:12:00,12.7,9.3,29.79,NNW,332,1.0,2.0,86,0.00,CLR,CLR,0.00,WeatherDisplay:10.34,2013-02-19 13:12:00,
2013-02-19 06:17:00,12.8,9.4,29.79,NNW,332,0.0,2.0,86,0.00,CLR,CLR,0.00,WeatherDisplay:10.34,2013-02-19 13:17:00,
2013-02-19 06:22:00,12.8,9.4,29.80,NNW,332,1.0,1.0,86,0.00,CLR,CLR,0.00,WeatherDisplay:10.34,2013-02-19 13:22:00,
2013-02-19 06:27:00,13.0,9.6,29.80,NNW,333,1.0,2.0,86,0.00,CLR,CLR,0.00,WeatherDisplay:10.34,2013-02-19 13:27:00,
2013-02-19 06:32:00,13.3,10.2,29.79,NNW,331,2.0,2.0,87,0.00,CLR,CLR,0.00,WeatherDisplay:10.34,2013-02-19 13:32:00,
2013-02-19 06:37:00,13.4,10.0,29.78,NNW,333,1.0,2.0,86,0.00,CLR,CLR,0.00,WeatherDisplay:10.34,2013-02-19 13:37:00,
2013-02-19 06:42:00,13.6,10.5,29.78,NE,42,3.0,3.0,87,0.00,CLR,CLR,0.00,WeatherDisplay:10.34,2013-02-19 13:42:00,
2013-02-19 06:47:00,13.7,10.5,29.78,NE,42,1.0,2.0,87,0.00,CLR,CLR,0.00,WeatherDisplay:10.34,2013-02-19 13:47:00,
2013-02-19 06:52:00,13.8,10.4,29.78,North,360,1.0,1.0,86,0.00,CLR,CLR,0.00,WeatherDisplay:10.34,2013-02-19 13:52:00,
2013-02-19 06:57:00,13.9,10.5,29.78,North,360,1.0,1.0,86,0.00,CLR,CLR,0.00,WeatherDisplay:10.34,2013-02-19 13:57:00,
2013-02-19 07:02:00,13.9,10.5,29.78,North,360,0.0,0.0,86,0.00,OVC,OVC,0.00,WeatherDisplay:10.34,2013-02-19 14:02:00,
2013-02-19 07:07:00,13.9,10.5,29.77,North,360,1.0,2.0,86,0.00,OVC,OVC,0.00,WeatherDisplay:10.34,2013-02-19 14:07:00,
2013-02-19 07:12:00,14.0,10.6,29.78,North,360,2.0,2.0,86,0.00,OVC,OVC,0.00,WeatherDisplay:10.34,2013-02-19 14:12:00,
2013-02-19 07:17:00,14.1,10.4,29.78,North,360,2.0,2.0,85,0.00,OVC,OVC,0.00,WeatherDisplay:10.34,2013-02-19 14:17:00,
2013-02-19 07:22:00,14.1,10.4,29.78,North,360,2.0,2.0,85,0.00,CLR,CLR,0.00,WeatherDisplay:10.34,2013-02-19 14:22:00,
2013-02-19 07:27:00,14.2,10.5,29.78,North,360,3.0,3.0,85,0.00,CLR,CLR,0.00,WeatherDisplay:10.34,2013-02-19 14:27:00,
2013-02-19 07:32:00,14.3,10.6,29.78,North,360,2.0,2.0,85,0.00,FEW,FEW,0.00,WeatherDisplay:10.34,2013-02-19 14:32:00,
2013-02-19 07:38:00,14.3,10.6,29.78,North,360,1.0,1.0,85,0.00,SCT,SCT,0.00,WeatherDisplay:10.34,2013-02-19 14:38:00,
2013-02-19 07:43:00,14.4,10.7,29.78,North,360,0.0,0.0,85,0.00,SCT,SCT,0.00,WeatherDisplay:10.34,2013-02-19 14:43:00,
2013-02-19 07:48:00,14.6,10.9,29.78,North,360,0.0,0.0,85,0.00,SCT,SCT,0.00,WeatherDisplay:10.34,2013-02-19 14:48:00,
2013-02-19 07:53:00,14.7,11.0,29.78,North,360,0.0,0.0,85,0.00,SCT,SCT,0.00,WeatherDisplay:10.34,2013-02-19 14:53:00,
2013-02-19 07:58:00,14.9,11.2,29.78,North,360,2.0,2.0,85,0.00,SCT,SCT,0.00,WeatherDisplay:10.34,2013-02-19 14:58:00,
2013-02-19 08:03:00,15.1,11.4,29.78,North,360,3.0,3.0,85,0.00,SCT,SCT,0.00,WeatherDisplay:10.34,2013-02-19 15:03:00,
2013-02-19 08:08:00,15.3,11.6,29.78,North,360,0.0,1.0,85,0.00,SCT,SCT,0.00,WeatherDisplay:10.34,2013-02-19 15:08:00,
2013-02-19 08:13:00,15.5,11.8,29.78,North,360,0.0,0.0,85,0.00,SCT,SCT,0.00,WeatherDisplay:10.34,2013-02-19 15:13:00,
2013-02-19 08:18:00,15.8,12.1,29.78,North,360,2.0,2.0,85,0.00,SCT,SCT,0.00,WeatherDisplay:10.34,2013-02-19 15:18:00,
2013-02-19 08:23:00,16.0,12.3,29.77,North,360,5.0,5.0,85,0.00,SCT,SCT,0.00,WeatherDisplay:10.34,2013-02-19 15:23:00,
2013-02-19 08:28:00,16.2,12.2,29.76,North,360,4.0,5.0,84,0.00,SCT,SCT,0.00,WeatherDisplay:10.34,2013-02-19 15:28:00,
2013-02-19 08:33:00,16.4,12.7,29.76,North,360,3.0,3.0,85,0.00,SCT,SCT,0.00,WeatherDisplay:10.34,2013-02-19 15:33:00,
2013-02-19 08:38:00,16.7,13.0,29.76,North,360,2.0,2.0,85,0.00,SCT,SCT,0.00,WeatherDisplay:10.34,2013-02-19 15:38:00,
2013-02-19 08:43:00,16.9,12.9,29.76,North,360,3.0,3.0,84,0.00,SCT,SCT,0.00,WeatherDisplay:10.34,2013-02-19 15:43:00,
2013-02-19 08:48:00,17.1,13.1,29.76,North,360,3.0,3.0,84,0.00,SCT,SCT,0.00,WeatherDisplay:10.34,2013-02-19 15:48:00,
2013-02-19 08:53:00,17.3,13.3,29.76,North,360,0.0,0.0,84,0.00,SCT,SCT,0.00,WeatherDisplay:10.34,2013-02-19 15:53:00,
2013-02-19 08:58:00,17.6,13.6,29.76,North,360,0.0,1.0,84,0.00,SCT,SCT,0.00,WeatherDisplay:10.34,2013-02-19 15:58:00,
2013-02-19 09:03:00,17.9,13.9,29.76,North,360,0.0,0.0,84,0.00,SCT,SCT,0.00,WeatherDisplay:10.34,2013-02-19 16:03:00,
2013-02-19 09:08:00,18.2,14.2,29.76,North,360,0.0,0.0,84,0.00,SCT,SCT,0.00,WeatherDisplay:10.34,2013-02-19 16:08:00,
2013-02-19 09:13:00,18.5,14.2,29.76,North,360,0.0,1.0,83,0.00,SCT,SCT,0.00,WeatherDisplay:10.34,2013-02-19 16:13:00,
2013-02-19 09:18:00,18.8,14.5,29.76,North,360,0.0,1.0,83,0.00,SCT,SCT,0.00,WeatherDisplay:10.34,2013-02-19 16:18:00,
2013-02-19 09:23:00,19.4,15.1,29.75,North,360,3.0,3.0,83,0.00,SCT,SCT,0.00,WeatherDisplay:10.34,2013-02-19 16:23:00,
2013-02-19 09:28:00,19.8,15.2,29.75,North,350,5.0,5.0,82,0.00,SCT,SCT,0.00,WeatherDisplay:10.34,2013-02-19 16:28:00,
2013-02-19 09:33:00,20.1,15.2,29.75,North,349,0.0,1.0,81,0.00,SCT,SCT,0.00,WeatherDisplay:10.34,2013-02-19 16:33:00,
2013-02-19 09:38:00,20.4,15.5,29.75,North,349,0.0,0.0,81,0.00,FEW,FEW,0.00,WeatherDisplay:10.34,2013-02-19 16:38:00,
2013-02-19 09:43:00,20.9,15.7,29.75,North,349,0.0,0.0,80,0.00,FEW,FEW,0.00,WeatherDisplay:10.34,2013-02-19 16:43:00,
2013-02-19 09:48:00,21.3,16.1,29.75,North,349,0.0,0.0,80,0.00,CLR,CLR,0.00,WeatherDisplay:10.34,2013-02-19 16:48:00,
2013-02-19 09:53:00,22.0,16.5,29.74,North,350,1.0,2.0,79,0.00,FEW,FEW,0.00,WeatherDisplay:10.34,2013-02-19 16:53:00,
2013-02-19 09:58:00,22.5,17.0,29.74,North,350,1.0,2.0,79,0.00,SCT,SCT,0.00,WeatherDisplay:10.34,2013-02-19 16:58:00,
2013-02-19 10:03:00,22.9,16.8,29.74,North,349,0.0,0.0,77,0.00,SCT,SCT,0.00,WeatherDisplay:10.34,2013-02-19 17:03:00,
2013-02-19 10:08:00,22.9,16.5,29.74,North,350,2.0,2.0,76,0.00,SCT,SCT,0.00,WeatherDisplay:10.34,2013-02-19 17:08:00,
2013-02-19 10:13:00,23.1,16.4,29.74,ESE,121,4.0,4.0,75,0.00,BKN,BKN,0.00,WeatherDisplay:10.34,2013-02-19 17:13:00,
2013-02-19 10:18:00,23.2,16.4,29.75,ESE,103,3.0,8.0,75,0.00,BKN,BKN,0.00,WeatherDisplay:10.34,2013-02-19 17:18:00,
2013-02-19 10:23:00,23.2,16.1,29.74,ENE,61,2.0,3.0,74,0.00,BKN,BKN,0.00,WeatherDisplay:10.34,2013-02-19 17:23:00,
2013-02-19 10:28:00,23.3,16.5,29.74,NE,56,4.0,5.0,75,0.00,BKN,BKN,0.00,WeatherDisplay:10.34,2013-02-19 17:28:00,
2013-02-19 10:33:00,23.2,16.4,29.74,ENE,57,5.0,8.0,75,0.00,SCT,SCT,0.00,WeatherDisplay:10.34,2013-02-19 17:33:00,
2013-02-19 10:38:00,23.4,16.9,29.74,ENE,78,6.0,8.0,76,0.00,SCT,SCT,0.00,WeatherDisplay:10.34,2013-02-19 17:38:00,
2013-02-19 10:43:00,23.7,17.2,29.73,NNE,19,5.0,7.0,76,0.00,SCT,SCT,0.00,WeatherDisplay:10.34,2013-02-19 17:43:00,
2013-02-19 10:48:00,24.0,17.2,29.73,NE,46,0.0,2.0,75,0.00,BKN,BKN,0.00,WeatherDisplay:10.34,2013-02-19 17:48:00,
2013-02-19 10:53:00,24.3,17.2,29.73,ENE,65,5.0,5.0,74,0.00,BKN,BKN,0.00,WeatherDisplay:10.34,2013-02-19 17:53:00,
2013-02-19 10:58:00,24.6,17.2,29.73,ENE,76,3.0,5.0,73,0.00,CLR,CLR,0.00,WeatherDisplay:10.34,2013-02-19 17:58:00,
2013-02-19 11:03:00,25.4,18.3,29.73,ENE,76,6.0,8.0,74,0.00,CLR,CLR,0.00,WeatherDisplay:10.34,2013-02-19 18:03:00,
2013-02-19 11:08:00,26.2,18.4,29.73,NE,55,5.0,7.0,72,0.00,CLR,CLR,0.00,WeatherDisplay:10.34,2013-02-19 18:08:00,
2013-02-19 11:13:00,26.5,18.0,29.72,ESE,109,3.0,5.0,70,0.00,CLR,CLR,0.00,WeatherDisplay:10.34,2013-02-19 18:13:00,
2013-02-19 11:18:00,27.4,18.9,29.71,East,88,7.0,8.0,70,0.00,CLR,CLR,0.00,WeatherDisplay:10.34,2013-02-19 18:18:00,
2013-02-19 11:23:00,27.9,18.4,29.71,East,88,9.0,12.0,67,0.00,FEW,FEW,0.00,WeatherDisplay:10.34,2013-02-19 18:23:00,
2013-02-19 11:28:00,27.9,18.0,29.71,East,94,5.0,7.0,66,0.00,CLR,CLR,0.00,WeatherDisplay:10.34,2013-02-19 18:28:00,
2013-02-19 11:33:00,28.6,18.7,29.71,ENE,67,9.0,12.0,66,0.00,CLR,CLR,0.00,WeatherDisplay:10.34,2013-02-19 18:33:00,
2013-02-19 11:38:00,29.0,18.7,29.71,East,90,5.0,10.0,65,0.00,CLR,CLR,0.00,WeatherDisplay:10.34,2013-02-19 18:38:00,
2013-02-19 11:43:00,29.1,18.8,29.72,East,80,8.0,9.0,65,0.00,CLR,CLR,0.00,WeatherDisplay:10.34,2013-02-19 18:43:00,
2013-02-19 11:48:00,29.4,18.7,29.71,NE,56,9.0,10.0,64,0.00,CLR,CLR,0.00,WeatherDisplay:10.34,2013-02-19 18:48:00,
2013-02-19 11:53:00,29.6,18.5,29.71,ENE,59,3.0,8.0,63,0.00,CLR,CLR,0.00,WeatherDisplay:10.34,2013-02-19 18:53:00,
2013-02-19 11:58:00,29.6,18.2,29.71,NE,47,8.0,10.0,62,0.00,FEW,FEW,0.00,WeatherDisplay:10.34,2013-02-19 18:58:00,
2013-02-19 12:03:00,30.1,18.6,29.70,ENE,57,9.0,9.0,62,0.00,CLR,CLR,0.00,WeatherDisplay:10.34,2013-02-19 19:03:00,
2013-02-19 12:08:00,30.9,18.2,29.70,ENE,65,11.0,12.0,59,0.00,CLR,CLR,0.00,WeatherDisplay:10.34,2013-02-19 19:08:00,
2013-02-19 12:13:00,31.4,18.3,29.68,ENE,66,13.0,14.0,58,0.00,CLR,CLR,0.00,WeatherDisplay:10.34,2013-02-19 19:13:00,
2013-02-19 12:18:00,31.7,18.2,29.68,East,88,14.0,14.0,57,0.00,CLR,CLR,0.00,WeatherDisplay:10.34,2013-02-19 19:18:00,
2013-02-19 12:23:00,32.1,20.2,29.68,ENE,74,13.0,14.0,61,0.00,CLR,CLR,0.00,WeatherDisplay:10.34,2013-02-19 19:23:00,
2013-02-19 12:28:00,32.3,17.9,29.68,NNW,342,8.0,12.0,55,0.00,CLR,CLR,0.00,WeatherDisplay:10.34,2013-02-19 19:28:00,
2013-02-19 12:33:00,32.2,18.2,29.67,ENE,70,9.0,10.0,56,0.00,CLR,CLR,0.00,WeatherDisplay:10.34,2013-02-19 19:33:00,
2013-02-19 12:38:00,32.2,17.8,29.67,ENE,72,9.0,10.0,55,0.00,CLR,CLR,0.00,WeatherDisplay:10.34,2013-02-19 19:38:00,
2013-02-19 12:43:00,32.6,18.2,29.67,ENE,60,8.0,12.0,55,0.00,CLR,CLR,0.00,WeatherDisplay:10.34,2013-02-19 19:43:00,
2013-02-19 12:48:00,33.2,18.3,29.67,NE,34,7.0,9.0,54,0.00,CLR,CLR,0.00,WeatherDisplay:10.34,2013-02-19 19:48:00,
2013-02-19 12:53:00,34.1,18.7,29.66,East,88,7.0,10.0,53,0.00,CLR,CLR,0.00,WeatherDisplay:10.34,2013-02-19 19:53:00,
2013-02-19 12:58:00,34.6,17.8,29.66,NE,56,9.0,13.0,50,0.00,CLR,CLR,0.00,WeatherDisplay:10.34,2013-02-19 19:58:00,
2013-02-19 13:03:00,35.2,17.4,29.66,NE,44,11.0,11.0,48,0.00,FEW,FEW,0.00,WeatherDisplay:10.34,2013-02-19 20:03:00,
2013-02-19 13:08:00,35.5,17.2,29.66,NE,46,9.0,12.0,47,0.00,CLR,CLR,0.00,WeatherDisplay:10.34,2013-02-19 20:08:00,
2013-02-19 13:13:00,36.3,17.5,29.65,ENE,60,5.0,9.0,46,0.00,CLR,CLR,0.00,WeatherDisplay:10.34,2013-02-19 20:13:00,
2013-02-19 13:18:00,36.8,18.4,29.65,NNE,22,8.0,12.0,47,0.00,CLR,CLR,0.00,WeatherDisplay:10.34,2013-02-19 20:18:00,
2013-02-19 13:23:00,36.7,18.3,29.64,NE,45,9.0,10.0,47,0.00,CLR,CLR,0.00,WeatherDisplay:10.34,2013-02-19 20:23:00,
2013-02-19 13:28:00,36.1,18.3,29.64,NE,45,11.0,13.0,48,0.00,CLR,CLR,0.00,WeatherDisplay:10.34,2013-02-19 20:28:00,
2013-02-19 13:33:00,35.7,18.4,29.64,NE,53,10.0,10.0,49,0.00,CLR,CLR,0.00,WeatherDisplay:10.34,2013-02-19 20:33:00,
2013-02-19 13:38:00,35.4,18.1,29.64,ENE,72,7.0,14.0,49,0.00,CLR,CLR,0.00,WeatherDisplay:10.34,2013-02-19 20:38:00,
2013-02-19 13:43:00,35.5,18.2,29.64,ENE,72,10.0,12.0,49,0.00,CLR,CLR,0.00,WeatherDisplay:10.34,2013-02-19 20:43:00,
2013-02-19 13:48:00,35.8,17.5,29.64,East,101,5.0,9.0,47,0.00,SCT,SCT,0.00,WeatherDisplay:10.34,2013-02-19 20:48:00,
2013-02-19 13:53:00,35.6,15.3,29.63,ENE,68,18.0,20.0,43,0.00,FEW,FEW,0.00,WeatherDisplay:10.34,2013-02-19 20:53:00,
2013-02-19 13:58:00,34.9,15.7,29.63,ENE,61,11.0,13.0,45,0.00,FEW,FEW,0.00,WeatherDisplay:10.34,2013-02-19 20:58:00,
2013-02-19 14:03:00,34.5,15.8,29.63,East,91,13.0,15.0,46,0.00,FEW,FEW,0.00,WeatherDisplay:10.34,2013-02-19 21:03:00,
2013-02-19 14:08:00,35.2,16.5,29.63,ENE,72,11.0,13.0,46,0.00,CLR,CLR,0.00,WeatherDisplay:10.34,2013-02-19 21:08:00,
2013-02-19 14:13:00,35.6,16.3,29.63,ESE,107,17.0,17.0,45,0.00,CLR,CLR,0.00,WeatherDisplay:10.34,2013-02-19 21:13:00,
2013-02-19 14:18:00,35.5,16.7,29.63,East,84,16.0,16.0,46,0.00,CLR,CLR,0.00,WeatherDisplay:10.34,2013-02-19 21:18:00,
2013-02-19 14:23:00,35.0,17.3,29.63,ESE,115,16.0,16.0,48,0.00,CLR,CLR,0.00,WeatherDisplay:10.34,2013-02-19 21:23:00,
2013-02-19 14:28:00,35.3,18.0,29.63,ESE,107,14.0,15.0,49,0.00,CLR,CLR,0.00,WeatherDisplay:10.34,2013-02-19 21:28:00,
2013-02-19 14:33:00,35.2,17.9,29.63,ESE,109,16.0,16.0,49,0.00,CLR,CLR,0.00,WeatherDisplay:10.34,2013-02-19 21:33:00,
2013-02-19 14:38:00,35.1,18.3,29.63,ESE,113,12.0,13.0,50,0.00,CLR,CLR,0.00,WeatherDisplay:10.34,2013-02-19 21:38:00,
2013-02-19 14:43:00,35.3,19.0,29.62,ENE,74,13.0,13.0,51,0.00,CLR,CLR,0.00,WeatherDisplay:10.34,2013-02-19 21:43:00,
2013-02-19 14:48:00,35.6,19.2,29.62,East,99,13.0,13.0,51,0.00,CLR,CLR,0.00,WeatherDisplay:10.34,2013-02-19 21:48:00,
2013-02-19 14:53:00,35.9,19.0,29.62,ESE,103,11.0,12.0,50,0.00,CLR,CLR,0.00,WeatherDisplay:10.34,2013-02-19 21:53:00,
2013-02-19 14:58:00,35.9,19.0,29.62,East,101,14.0,14.0,50,0.00,CLR,CLR,0.00,WeatherDisplay:10.34,2013-02-19 21:58:00,
2013-02-19 15:03:00,36.0,19.1,29.62,ENE,68,7.0,10.0,50,0.00,CLR,CLR,0.00,WeatherDisplay:10.34,2013-02-19 22:03:00,
2013-02-19 15:08:00,36.4,19.0,29.62,ESE,110,6.0,9.0,49,0.00,CLR,CLR,0.00,WeatherDisplay:10.34,2013-02-19 22:08:00,
2013-02-19 15:13:00,36.6,18.7,29.62,East,92,8.0,10.0,48,0.00,CLR,CLR,0.00,WeatherDisplay:10.34,2013-02-19 22:13:00,
2013-02-19 15:18:00,36.1,17.8,29.62,ESE,114,10.0,10.0,47,0.00,BKN,BKN,0.00,WeatherDisplay:10.34,2013-02-19 22:18:00,
2013-02-19 15:23:00,35.8,18.5,29.62,East,100,6.0,7.0,49,0.00,CLR,CLR,0.00,WeatherDisplay:10.34,2013-02-19 22:23:00,
2013-02-19 15:28:00,35.9,18.1,29.62,East,83,4.0,9.0,48,0.00,FEW,FEW,0.00,WeatherDisplay:10.34,2013-02-19 22:28:00,
2013-02-19 15:33:00,36.0,18.7,29.61,East,90,10.0,10.0,49,0.00,CLR,CLR,0.00,WeatherDisplay:10.34,2013-02-19 22:33:00,
2013-02-19 15:38:00,35.8,18.0,29.61,East,99,10.0,10.0,48,0.00,SCT,SCT,0.00,WeatherDisplay:10.34,2013-02-19 22:38:00,
2013-02-19 15:43:00,35.4,18.1,29.62,ENE,75,4.0,5.0,49,0.00,SCT,SCT,0.00,WeatherDisplay:10.34,2013-02-19 22:43:00,
2013-02-19 15:48:00,35.2,17.9,29.62,East,99,6.0,10.0,49,0.00,SCT,SCT,0.00,WeatherDisplay:10.34,2013-02-19 22:48:00,
2013-02-19 15:53:00,35.2,18.4,29.61,ENE,76,4.0,8.0,50,0.00,SCT,SCT,0.00,WeatherDisplay:10.34,2013-02-19 22:53:00,
2013-02-19 15:58:00,35.1,18.3,29.61,NE,42,7.0,7.0,50,0.00,CLR,CLR,0.00,WeatherDisplay:10.34,2013-02-19 22:58:00,
2013-02-19 16:03:00,35.6,18.8,29.61,East,84,4.0,7.0,50,0.00,CLR,CLR,0.00,WeatherDisplay:10.34,2013-02-19 23:03:00,
2013-02-19 16:08:00,36.1,18.8,29.61,ENE,68,6.0,6.0,49,0.00,CLR,CLR,0.00,WeatherDisplay:10.34,2013-02-19 23:08:00,
2013-02-19 16:13:00,36.4,19.0,29.61,NE,43,6.0,8.0,49,0.00,CLR,CLR,0.00,WeatherDisplay:10.34,2013-02-19 23:13:00,
2013-02-19 16:18:00,36.3,18.5,29.61,NE,48,6.0,6.0,48,0.00,CLR,CLR,0.00,WeatherDisplay:10.34,2013-02-19 23:18:00,
2013-02-19 16:23:00,36.0,18.2,29.61,NNE,13,7.0,8.0,48,0.00,CLR,CLR,0.00,WeatherDisplay:10.34,2013-02-19 23:23:00,
2013-02-19 16:28:00,35.4,17.6,29.61,NNE,24,10.0,12.0,48,0.00,CLR,CLR,0.00,WeatherDisplay:10.34,2013-02-19 23:28:00,
2013-02-19 16:33:00,34.4,17.2,29.61,NNE,33,5.0,5.0,49,0.00,CLR,CLR,0.00,WeatherDisplay:10.34,2013-02-19 23:33:00,
2013-02-19 16:38:00,33.8,17.1,29.61,NNE,24,3.0,3.0,50,0.00,CLR,CLR,0.00,WeatherDisplay:10.34,2013-02-19 23:38:00,
2013-02-19 16:43:00,33.4,17.2,29.61,NNW,345,8.0,9.0,51,0.00,CLR,CLR,0.00,WeatherDisplay:10.34,2013-02-19 23:43:00,
2013-02-19 16:48:00,32.9,16.7,29.62,NNW,346,7.0,8.0,51,0.00,CLR,CLR,0.00,WeatherDisplay:10.34,2013-02-19 23:48:00,
2013-02-19 16:53:00,32.6,16.9,29.62,NNW,348,5.0,5.0,52,0.00,CLR,CLR,0.00,WeatherDisplay:10.34,2013-02-19 23:53:00,
2013-02-19 16:58:00,32.4,16.7,29.62,NNW,341,7.0,8.0,52,0.00,FEW,FEW,0.00,WeatherDisplay:10.34,2013-02-19 23:58:00,
2013-02-19 17:03:00,31.8,16.6,29.62,NW,325,10.0,10.0,53,0.00,FEW,FEW,0.00,WeatherDisplay:10.34,2013-02-20 00:03:00,
2013-02-19 17:08:00,31.1,16.8,29.62,NNW,348,10.0,10.0,55,0.00,FEW,FEW,0.00,WeatherDisplay:10.34,2013-02-20 00:08:00,
2013-02-19 17:13:00,30.6,16.3,29.62,North,355,8.0,10.0,55,0.00,FEW,FEW,0.00,WeatherDisplay:10.34,2013-02-20 00:13:00,
2013-02-19 18:23:00,27.8,14.9,29.62,NNW,342,0.0,9.0,58,0.00,CLR,CLR,0.00,WeatherDisplay:10.34,2013-02-20 01:23:00,
2013-02-19 18:28:00,27.6,15.1,29.62,NNW,342,0.0,1.0,59,0.00,CLR,CLR,0.00,WeatherDisplay:10.34,2013-02-20 01:28:00,
2013-02-19 18:33:00,27.4,14.9,29.62,NNW,342,0.0,0.0,59,0.00,CLR,CLR,0.00,WeatherDisplay:10.34,2013-02-20 01:33:00,
2013-02-19 18:38:00,27.3,14.8,29.62,NNW,342,0.0,0.0,59,0.00,CLR,CLR,0.00,WeatherDisplay:10.34,2013-02-20 01:38:00,
2013-02-19 18:43:00,27.2,14.8,29.62,NNW,342,0.0,0.0,59,0.00,CLR,CLR,0.00,WeatherDisplay:10.34,2013-02-20 01:43:00,
2013-02-19 18:48:00,27.2,14.8,29.62,NNW,342,0.0,0.0,59,0.00,CLR,CLR,0.00,WeatherDisplay:10.34,2013-02-20 01:48:00,
2013-02-19 18:53:00,26.9,13.3,29.63,NNW,342,0.0,0.0,56,0.00,CLR,CLR,0.00,WeatherDisplay:10.34,2013-02-20 01:53:00,
2013-02-19 18:58:00,26.6,13.8,29.63,NNW,342,3.0,3.0,58,0.00,CLR,CLR,0.00,WeatherDisplay:10.34,2013-02-20 01:58:00,
2013-02-19 19:03:00,26.2,13.4,29.63,NNW,342,2.0,2.0,58,0.00,CLR,CLR,0.00,WeatherDisplay:10.34,2013-02-20 02:03:00,
2013-02-19 19:08:00,26.1,13.7,29.63,NNW,341,0.0,0.0,59,0.00,CLR,CLR,0.00,WeatherDisplay:10.34,2013-02-20 02:08:00,
2013-02-19 19:13:00,25.9,13.5,29.63,NNW,341,0.0,0.0,59,0.00,CLR,CLR,0.00,WeatherDisplay:10.34,2013-02-20 02:13:00,
2013-02-19 19:18:00,25.7,13.3,29.63,NNW,341,1.0,2.0,59,0.00,CLR,CLR,0.00,WeatherDisplay:10.34,2013-02-20 02:18:00,
2013-02-19 19:23:00,25.4,13.4,29.63,West,261,0.0,1.0,60,0.00,CLR,CLR,0.00,WeatherDisplay:10.34,2013-02-20 02:23:00,
2013-02-19 19:28:00,25.3,13.3,29.63,West,261,3.0,3.0,60,0.00,CLR,CLR,0.00,WeatherDisplay:10.34,2013-02-20 02:28:00,
2013-02-19 19:33:00,25.1,13.2,29.63,West,261,5.0,5.0,60,0.00,CLR,CLR,0.00,WeatherDisplay:10.34,2013-02-20 02:33:00,
2013-02-19 19:38:00,25.0,13.1,29.63,West,262,3.0,3.0,60,0.00,CLR,CLR,0.00,WeatherDisplay:10.34,2013-02-20 02:38:00,
2013-02-19 19:43:00,24.9,13.0,29.63,West,262,0.0,1.0,60,0.00,CLR,CLR,0.00,WeatherDisplay:10.34,2013-02-20 02:43:00,
2013-02-19 19:48:00,24.8,12.9,29.63,West,262,0.0,0.0,60,0.00,CLR,CLR,0.00,WeatherDisplay:10.34,2013-02-20 02:48:00,
2013-02-19 19:53:00,24.7,12.8,29.63,West,262,2.0,2.0,60,0.00,CLR,CLR,0.00,WeatherDisplay:10.34,2013-02-20 02:53:00,
2013-02-19 19:58:00,24.6,12.7,29.63,West,262,4.0,4.0,60,0.00,CLR,CLR,0.00,WeatherDisplay:10.34,2013-02-20 02:58:00,
2013-02-19 20:03:00,24.6,12.7,29.63,West,262,0.0,0.0,60,0.00,CLR,CLR,0.00,WeatherDisplay:10.34,2013-02-20 03:03:00,
2013-02-19 20:08:00,24.6,13.1,29.63,West,262,3.0,3.0,61,0.00,CLR,CLR,0.00,WeatherDisplay:10.34,2013-02-20 03:08:00,
2013-02-19 20:13:00,24.5,13.0,29.63,West,261,0.0,0.0,61,0.00,CLR,CLR,0.00,WeatherDisplay:10.34,2013-02-20 03:13:00,
2013-02-19 20:18:00,24.5,13.0,29.63,West,262,1.0,1.0,61,0.00,CLR,CLR,0.00,WeatherDisplay:10.34,2013-02-20 03:18:00,
2013-02-19 20:23:00,24.3,12.4,29.63,West,261,1.0,1.0,60,0.00,CLR,CLR,0.00,WeatherDisplay:10.34,2013-02-20 03:23:00,
2013-02-19 20:28:00,24.1,12.6,29.63,West,261,1.0,1.0,61,0.00,CLR,CLR,0.00,WeatherDisplay:10.34,2013-02-20 03:28:00,
2013-02-19 20:33:00,23.9,11.6,29.63,South,187,3.0,3.0,59,0.00,CLR,CLR,0.00,WeatherDisplay:10.34,2013-02-20 03:33:00,
2013-02-19 20:38:00,23.6,11.7,29.63,South,187,1.0,1.0,60,0.00,CLR,CLR,0.00,WeatherDisplay:10.34,2013-02-20 03:38:00,
2013-02-19 20:43:00,23.5,12.0,29.63,South,187,0.0,0.0,61,0.00,CLR,CLR,0.00,WeatherDisplay:10.34,2013-02-20 03:43:00,
2013-02-19 20:48:00,23.3,11.8,29.63,South,187,0.0,0.0,61,0.00,CLR,CLR,0.00,WeatherDisplay:10.34,2013-02-20 03:48:00,
2013-02-19 20:53:00,23.3,11.8,29.63,South,187,0.0,0.0,61,0.00,CLR,CLR,0.00,WeatherDisplay:10.34,2013-02-20 03:53:00,
2013-02-19 20:58:00,23.1,12.0,29.63,South,187,0.0,1.0,62,0.00,CLR,CLR,0.00,WeatherDisplay:10.34,2013-02-20 03:58:00,
2013-02-19 21:03:00,23.0,11.9,29.63,South,187,4.0,4.0,62,0.00,CLR,CLR,0.00,WeatherDisplay:10.34,2013-02-20 04:03:00,
2013-02-19 21:08:00,22.8,11.7,29.63,South,187,1.0,1.0,62,0.00,CLR,CLR,0.00,WeatherDisplay:10.34,2013-02-20 04:08:00,
2013-02-19 21:13:00,22.7,12.0,29.63,South,187,0.0,0.0,63,0.00,CLR,CLR,0.00,WeatherDisplay:10.34,2013-02-20 04:13:00,
2013-02-19 21:18:00,22.6,12.2,29.63,South,187,0.0,0.0,64,0.00,CLR,CLR,0.00,WeatherDisplay:10.34,2013-02-20 04:18:00,
2013-02-19 21:23:00,22.5,12.1,29.63,South,187,0.0,0.0,64,0.00,CLR,CLR,0.00,WeatherDisplay:10.34,2013-02-20 04:23:00,
2013-02-19 21:28:00,22.5,12.8,29.63,South,188,3.0,3.0,66,0.00,CLR,CLR,0.00,WeatherDisplay:10.34,2013-02-20 04:28:00,
2013-02-19 21:33:00,22.5,13.2,29.63,South,188,3.0,3.0,67,0.00,CLR,CLR,0.00,WeatherDisplay:10.34,2013-02-20 04:33:00,
2013-02-19 21:38:00,22.6,13.3,29.63,South,188,0.0,0.0,67,0.00,CLR,CLR,0.00,WeatherDisplay:10.34,2013-02-20 04:38:00,
2013-02-19 21:43:00,22.7,13.7,29.63,South,187,0.0,0.0,68,0.00,CLR,CLR,0.00,WeatherDisplay:10.34,2013-02-20 04:43:00,
2013-02-19 21:48:00,22.7,13.7,29.63,South,187,0.0,0.0,68,0.00,CLR,CLR,0.00,WeatherDisplay:10.34,2013-02-20 04:48:00,
2013-02-19 21:53:00,22.6,13.6,29.63,South,187,0.0,1.0,68,0.00,CLR,CLR,0.00,WeatherDisplay:10.34,2013-02-20 04:53:00,
2013-02-19 21:58:00,22.5,13.5,29.63,South,188,0.0,0.0,68,0.00,CLR,CLR,0.00,WeatherDisplay:10.34,2013-02-20 04:58:00,
2013-02-19 22:00:00,22.5,13.5,29.63,South,187,0.0,0.0,68,0.00,CLR,CLR,0.00,WeatherDisplay:10.34,2013-02-20 05:00:00,
2013-02-19 22:04:00,22.4,13.4,29.63,South,188,0.0,0.0,68,0.00,CLR,CLR,0.00,WeatherDisplay:10.34,2013-02-20 05:04:00,
2013-02-19 22:09:00,22.3,13.3,29.63,South,188,2.0,2.0,68,0.00,CLR,CLR,0.00,WeatherDisplay:10.34,2013-02-20 05:09:00,
2013-02-19 22:14:00,22.0,13.0,29.63,South,187,6.0,6.0,68,0.00,CLR,CLR,0.00,WeatherDisplay:10.34,2013-02-20 05:14:00,
2013-02-19 22:19:00,21.7,12.4,29.63,South,187,3.0,3.0,67,0.00,CLR,CLR,0.00,WeatherDisplay:10.34,2013-02-20 05:19:00,
2013-02-19 22:24:00,21.5,12.6,29.63,South,188,2.0,2.0,68,0.00,CLR,CLR,0.00,WeatherDisplay:10.34,2013-02-20 05:24:00,
2013-02-19 22:29:00,21.3,12.4,29.63,South,188,4.0,4.0,68,0.00,CLR,CLR,0.00,WeatherDisplay:10.34,2013-02-20 05:29:00,
2013-02-19 22:34:00,21.2,12.3,29.62,South,188,5.0,5.0,68,0.00,CLR,CLR,0.00,WeatherDisplay:10.34,2013-02-20 05:34:00,
2013-02-19 22:39:00,21.0,12.4,29.62,WSW,246,6.0,7.0,69,0.00,CLR,CLR,0.00,WeatherDisplay:10.34,2013-02-20 05:39:00,
2013-02-19 22:44:00,21.1,12.8,29.62,WSW,250,3.0,3.0,70,0.00,CLR,CLR,0.00,WeatherDisplay:10.34,2013-02-20 05:44:00,
2013-02-19 22:49:00,21.2,13.3,29.62,WSW,249,5.0,5.0,71,0.00,CLR,CLR,0.00,WeatherDisplay:10.34,2013-02-20 05:49:00,
2013-02-19 22:54:00,21.2,13.3,29.62,WSW,249,2.0,2.0,71,0.00,CLR,CLR,0.00,WeatherDisplay:10.34,2013-02-20 05:54:00,
2013-02-19 22:59:00,21.1,12.8,29.62,WSW,249,4.0,4.0,70,0.00,CLR,CLR,0.00,WeatherDisplay:10.34,2013-02-20 05:59:00,
2013-02-19 23:04:00,20.9,12.6,29.62,WSW,249,4.0,5.0,70,0.00,CLR,CLR,0.00,WeatherDisplay:10.34,2013-02-20 06:04:00,
2013-02-19 23:09:00,20.9,12.6,29.62,SW,236,5.0,5.0,70,0.00,CLR,CLR,0.00,WeatherDisplay:10.34,2013-02-20 06:09:00,
2013-02-19 23:14:00,20.7,12.5,29.62,SW,236,3.0,3.0,70,0.00,CLR,CLR,0.00,WeatherDisplay:10.34,2013-02-20 06:14:00,
2013-02-19 23:19:00,20.6,12.0,29.62,SW,236,4.0,4.0,69,0.00,CLR,CLR,0.00,WeatherDisplay:10.34,2013-02-20 06:19:00,
2013-02-19 23:24:00,20.4,11.8,29.62,SW,236,5.0,5.0,69,0.00,CLR,CLR,0.00,WeatherDisplay:10.34,2013-02-20 06:24:00,
2013-02-19 23:29:00,20.2,12.3,29.62,SW,236,5.0,5.0,71,0.00,CLR,CLR,0.00,WeatherDisplay:10.34,2013-02-20 06:29:00,
2013-02-19 23:34:00,20.1,11.9,29.62,SW,236,4.0,4.0,70,0.00,CLR,CLR,0.00,WeatherDisplay:10.34,2013-02-20 06:34:00,
2013-02-19 23:39:00,19.9,11.4,29.62,SW,236,0.0,1.0,69,0.00,CLR,CLR,0.00,WeatherDisplay:10.34,2013-02-20 06:39:00,
2013-02-19 23:44:00,19.7,11.2,29.62,SW,236,0.0,1.0,69,0.00,CLR,CLR,0.00,WeatherDisplay:10.34,2013-02-20 06:44:00,
2013-02-19 23:49:00,19.5,11.0,29.62,SW,236,3.0,3.0,69,0.00,CLR,CLR,0.00,WeatherDisplay:10.34,2013-02-20 06:49:00,
2013-02-19 23:54:00,19.2,11.0,29.62,SW,236,5.0,5.0,70,0.00,CLR,CLR,0.00,WeatherDisplay:10.34,2013-02-20 06:54:00,
2013-02-19 23:59:00,19.0,11.1,29.62,SW,236,4.0,4.0,71,0.00,CLR,CLR,0.00,WeatherDisplay:10.34,2013-02-20 06:59:00,